Terminal Aerodrome Forecast
Issued by NWS Charleston, WV

Home | Current Version | Previous Version | Text Only | Print | Product List | Glossary On
Versions: 1 2 3 4 5 6 7 8 9 10 11 12 13 14 15 16 17 18 19 20 21 22 23 24
000
FTUS41 KRLX 271728
TAFCRW
TAF
KCRW 271728Z 2718/2818 23007KT P6SM BKN030 BKN120
     FM280100 VRB03KT P6SM SCT050
     FM280900 00000KT P6SM BKN035
     FM281100 00000KT P6SM BKN025
     FM281300 00000KT P6SM VCTS BKN025CB
     FM281500 00000KT P6SM VCTS BKN035CB=

USA.gov is the U.S. government's official web portal to all federal, state and local government web resources and services.